sensor_id;sensor_type;location;lat;lon;timestamp;pressure;altitude;pressure_sealevel;temperature;humidity
79269;BME280;68714;48.586;7.772;2023-04-03T00:02:08;100640.50;;;5.71;56.20
79269;BME280;68714;48.586;7.772;2023-04-03T00:04:33;100639.69;;;5.66;56.25
79269;BME280;68714;48.586;7.772;2023-04-03T00:06:59;100641.47;;;5.62;55.96
79269;BME280;68714;48.586;7.772;2023-04-03T00:09:25;100649.31;;;5.65;56.36
79269;BME280;68714;48.586;7.772;2023-04-03T00:11:51;100637.94;;;5.65;55.79
79269;BME280;68714;48.586;7.772;2023-04-03T00:14:16;100633.63;;;5.59;55.91
79269;BME280;68714;48.586;7.772;2023-04-03T00:16:42;100641.56;;;5.51;55.34
79269;BME280;68714;48.586;7.772;2023-04-03T00:19:10;100638.97;;;5.47;55.83
79269;BME280;68714;48.586;7.772;2023-04-03T00:21:37;100647.72;;;5.44;55.62
79269;BME280;68714;48.586;7.772;2023-04-03T00:24:03;100639.88;;;5.41;55.67
79269;BME280;68714;48.586;7.772;2023-04-03T00:26:28;100647.75;;;5.38;55.89
79269;BME280;68714;48.586;7.772;2023-04-03T00:28:53;100642.50;;;5.41;55.92
79269;BME280;68714;48.586;7.772;2023-04-03T00:31:19;100640.75;;;5.42;55.65
79269;BME280;68714;48.586;7.772;2023-04-03T00:33:44;100645.97;;;5.42;55.77
79269;BME280;68714;48.586;7.772;2023-04-03T00:36:10;100646.88;;;5.41;55.90
79269;BME280;68714;48.586;7.772;2023-04-03T00:38:36;100648.59;;;5.42;55.51
79269;BME280;68714;48.586;7.772;2023-04-03T00:41:02;100648.63;;;5.37;55.94
79269;BME280;68714;48.586;7.772;2023-04-03T00:43:28;100642.50;;;5.40;55.76
79269;BME280;68714;48.586;7.772;2023-04-03T00:45:57;100641.63;;;5.42;55.42
79269;BME280;68714;48.586;7.772;2023-04-03T00:48:34;100646.00;;;5.37;54.46
79269;BME280;68714;48.586;7.772;2023-04-03T00:51:03;100646.84;;;5.42;55.67
79269;BME280;68714;48.586;7.772;2023-04-03T00:53:50;100645.13;;;5.40;54.91
79269;BME280;68714;48.586;7.772;2023-04-03T00:56:19;100638.09;;;5.45;55.93
79269;BME280;68714;48.586;7.772;2023-04-03T00:58:57;100641.59;;;5.47;55.75
79269;BME280;68714;48.586;7.772;2023-04-03T01:01:26;100647.66;;;5.50;55.69
79269;BME280;68714;48.586;7.772;2023-04-03T01:03:52;100641.56;;;5.48;55.45
79269;BME280;68714;48.586;7.772;2023-04-03T01:06:21;100642.47;;;5.46;55.82
79269;BME280;68714;48.586;7.772;2023-04-03T01:08:49;100651.16;;;5.48;55.93
79269;BME280;68714;48.586;7.772;2023-04-03T01:11:15;100642.44;;;5.50;55.24
79269;BME280;68714;48.586;7.772;2023-04-03T01:13:40;100649.44;;;5.48;55.34
79269;BME280;68714;48.586;7.772;2023-04-03T01:16:08;100651.13;;;5.54;55.29
79269;BME280;68714;48.586;7.772;2023-04-03T01:18:34;100636.31;;;5.53;55.76
79269;BME280;68714;48.586;7.772;2023-04-03T01:24:00;100638.06;;;5.48;55.60
79269;BME280;68714;48.586;7.772;2023-04-03T01:26:29;100641.56;;;5.50;54.80
79269;BME280;68714;48.586;7.772;2023-04-03T01:28:55;100647.69;;;5.47;55.30
79269;BME280;68714;48.586;7.772;2023-04-03T01:31:27;100643.28;;;5.51;55.44
79269;BME280;68714;48.586;7.772;2023-04-03T01:33:54;100642.38;;;5.57;56.19
79269;BME280;68714;48.586;7.772;2023-04-03T01:36:25;100635.38;;;5.57;55.27
79269;BME280;68714;48.586;7.772;2023-04-03T01:38:52;100630.13;;;5.59;55.83
79269;BME280;68714;48.586;7.772;2023-04-03T01:41:18;100636.28;;;5.58;55.24
79269;BME280;68714;48.586;7.772;2023-04-03T01:43:46;100631.91;;;5.57;55.57
79269;BME280;68714;48.586;7.772;2023-04-03T01:46:12;100635.38;;;5.59;55.12
79269;BME280;68714;48.586;7.772;2023-04-03T01:48:37;100638.03;;;5.54;54.80
79269;BME280;68714;48.586;7.772;2023-04-03T01:51:03;100640.69;;;5.49;55.19
79269;BME280;68714;48.586;7.772;2023-04-03T01:53:28;100625.91;;;5.44;54.78
79269;BME280;68714;48.586;7.772;2023-04-03T01:55:54;100631.16;;;5.42;55.46
79269;BME280;68714;48.586;7.772;2023-04-03T01:58:19;100632.84;;;5.48;55.07
79269;BME280;68714;48.586;7.772;2023-04-03T02:00:45;100634.59;;;5.49;55.12
79269;BME280;68714;48.586;7.772;2023-04-03T02:03:10;100632.84;;;5.48;55.46
79269;BME280;68714;48.586;7.772;2023-04-03T02:05:36;100636.34;;;5.48;55.22
79269;BME280;68714;48.586;7.772;2023-04-03T02:08:01;100637.22;;;5.47;54.57
79269;BME280;68714;48.586;7.772;2023-04-03T02:10:27;100627.59;;;5.48;55.12
79269;BME280;68714;48.586;7.772;2023-04-03T02:12:52;100636.34;;;5.47;54.76
79269;BME280;68714;48.586;7.772;2023-04-03T02:15:18;100630.25;;;5.43;54.96
79269;BME280;68714;48.586;7.772;2023-04-03T02:17:43;100635.47;;;5.46;55.07
79269;BME280;68714;48.586;7.772;2023-04-03T02:20:09;100632.00;;;5.44;55.11
79269;BME280;68714;48.586;7.772;2023-04-03T02:22:35;100634.63;;;5.44;55.18
79269;BME280;68714;48.586;7.772;2023-04-03T02:25:00;100627.59;;;5.49;55.79
79269;BME280;68714;48.586;7.772;2023-04-03T02:27:26;100630.16;;;5.54;55.27
79269;BME280;68714;48.586;7.772;2023-04-03T02:29:52;100631.97;;;5.49;55.00
79269;BME280;68714;48.586;7.772;2023-04-03T02:32:17;100630.22;;;5.46;55.12
79269;BME280;68714;48.586;7.772;2023-04-03T02:34:43;100628.53;;;5.44;55.28
79269;BME280;68714;48.586;7.772;2023-04-03T02:37:08;100629.41;;;5.41;55.12
79269;BME280;68714;48.586;7.772;2023-04-03T02:39:34;100628.56;;;5.41;54.83
79269;BME280;68714;48.586;7.772;2023-04-03T02:42:00;100629.44;;;5.36;54.89
79269;BME280;68714;48.586;7.772;2023-04-03T02:44:25;100628.56;;;5.39;55.44
79269;BME280;68714;48.586;7.772;2023-04-03T02:46:51;100631.19;;;5.39;55.07
79269;BME280;68714;48.586;7.772;2023-04-03T02:49:16;100631.19;;;5.38;55.35
79269;BME280;68714;48.586;7.772;2023-04-03T02:51:42;100628.56;;;5.39;55.21
79269;BME280;68714;48.586;7.772;2023-04-03T02:54:08;100627.66;;;5.40;55.11
79269;BME280;68714;48.586;7.772;2023-04-03T02:56:33;100632.91;;;5.37;54.88
79269;BME280;68714;48.586;7.772;2023-04-03T02:58:58;100628.59;;;5.36;54.74
79269;BME280;68714;48.586;7.772;2023-04-03T03:01:24;100625.06;;;5.39;55.06
79269;BME280;68714;48.586;7.772;2023-04-03T03:03:50;100625.94;;;5.38;55.00
79269;BME280;68714;48.586;7.772;2023-04-03T03:06:16;100631.22;;;5.33;54.63
79269;BME280;68714;48.586;7.772;2023-04-03T03:08:42;100629.47;;;5.33;55.00
79269;BME280;68714;48.586;7.772;2023-04-03T03:11:08;100630.28;;;5.40;55.14
79269;BME280;68714;48.586;7.772;2023-04-03T03:13:34;100625.03;;;5.42;55.12
79269;BME280;68714;48.586;7.772;2023-04-03T03:16:00;100630.25;;;5.43;54.76
79269;BME280;68714;48.586;7.772;2023-04-03T03:18:26;100618.94;;;5.40;55.10
79269;BME280;68714;48.586;7.772;2023-04-03T03:20:56;100619.84;;;5.34;54.82
79269;BME280;68714;48.586;7.772;2023-04-03T03:23:23;100625.09;;;5.31;55.10
79269;BME280;68714;48.586;7.772;2023-04-03T03:26:00;100619.91;;;5.28;54.41
79269;BME280;68714;48.586;7.772;2023-04-03T03:28:26;100628.63;;;5.25;54.88
79269;BME280;68714;48.586;7.772;2023-04-03T03:30:51;100632.13;;;5.27;55.13
79269;BME280;68714;48.586;7.772;2023-04-03T03:33:17;100621.66;;;5.27;55.25
79269;BME280;68714;48.586;7.772;2023-04-03T03:35:43;100626.88;;;5.27;55.61
79269;BME280;68714;48.586;7.772;2023-04-03T03:38:09;100621.66;;;5.26;55.19
79269;BME280;68714;48.586;7.772;2023-04-03T03:40:34;100625.16;;;5.23;55.12
79269;BME280;68714;48.586;7.772;2023-04-03T03:43:00;100622.56;;;5.18;55.46
79269;BME280;68714;48.586;7.772;2023-04-03T03:45:25;100620.88;;;5.11;55.06
79269;BME280;68714;48.586;7.772;2023-04-03T03:47:51;100613.06;;;5.05;55.66
79269;BME280;68714;48.586;7.772;2023-04-03T03:50:16;100617.44;;;5.02;55.18
79269;BME280;68714;48.586;7.772;2023-04-03T03:52:42;100620.09;;;4.98;55.46
79269;BME280;68714;48.586;7.772;2023-04-03T03:55:08;100621.84;;;4.98;55.43
79269;BME280;68714;48.586;7.772;2023-04-03T03:57:33;100623.59;;;4.94;55.05
79269;BME280;68714;48.586;7.772;2023-04-03T03:59:59;100628.84;;;4.88;55.35
79269;BME280;68714;48.586;7.772;2023-04-03T04:02:24;100629.78;;;4.82;55.64
79269;BME280;68714;48.586;7.772;2023-04-03T04:04:50;100629.81;;;4.76;55.99
79269;BME280;68714;48.586;7.772;2023-04-03T04:07:15;100637.66;;;4.76;56.00
79269;BME280;68714;48.586;7.772;2023-04-03T04:09:41;100628.94;;;4.74;56.08
79269;BME280;68714;48.586;7.772;2023-04-03T04:12:06;100630.72;;;4.68;55.84
79269;BME280;68714;48.586;7.772;2023-04-03T04:14:32;100628.94;;;4.71;55.89
79269;BME280;68714;48.586;7.772;2023-04-03T04:16:57;100625.47;;;4.69;55.62
79269;BME280;68714;48.586;7.772;2023-04-03T04:19:22;100631.59;;;4.65;55.65
79269;BME280;68714;48.586;7.772;2023-04-03T04:21:48;100638.56;;;4.63;55.43
79269;BME280;68714;48.586;7.772;2023-04-03T04:24:13;100631.59;;;4.62;56.38
79269;BME280;68714;48.586;7.772;2023-04-03T04:26:39;100639.44;;;4.63;55.91
79269;BME280;68714;48.586;7.772;2023-04-03T04:29:05;100632.47;;;4.58;55.76
79269;BME280;68714;48.586;7.772;2023-04-03T04:31:30;100646.44;;;4.57;56.51
79269;BME280;68714;48.586;7.772;2023-04-03T04:33:55;100642.94;;;4.53;55.54
79269;BME280;68714;48.586;7.772;2023-04-03T04:36:21;100642.94;;;4.53;55.87
79269;BME280;68714;48.586;7.772;2023-04-03T04:38:46;100643.84;;;4.51;56.06
79269;BME280;68714;48.586;7.772;2023-04-03T04:41:12;100641.25;;;4.49;56.08
79269;BME280;68714;48.586;7.772;2023-04-03T04:43:37;100643.88;;;4.49;56.21
79269;BME280;68714;48.586;7.772;2023-04-03T04:46:08;100649.09;;;4.49;56.45
79269;BME280;68714;48.586;7.772;2023-04-03T04:48:35;100649.94;;;4.56;56.19
79269;BME280;68714;48.586;7.772;2023-04-03T04:51:01;100639.47;;;4.53;56.36
79269;BME280;68714;48.586;7.772;2023-04-03T04:53:27;100642.09;;;4.50;56.51
79269;BME280;68714;48.586;7.772;2023-04-03T04:55:53;100643.84;;;4.52;55.85
79269;BME280;68714;48.586;7.772;2023-04-03T04:58:18;100645.56;;;4.52;56.41
79269;BME280;68714;48.586;7.772;2023-04-03T05:00:44;100650.78;;;4.55;56.37
79269;BME280;68714;48.586;7.772;2023-04-03T05:03:10;100642.09;;;4.53;56.49
79269;BME280;68714;48.586;7.772;2023-04-03T05:05:36;100650.78;;;4.59;56.67
79269;BME280;68714;48.586;7.772;2023-04-03T05:08:02;100647.28;;;4.62;56.52
79269;BME280;68714;48.586;7.772;2023-04-03T05:10:28;100652.47;;;4.70;56.81
79269;BME280;68714;48.586;7.772;2023-04-03T05:12:53;100655.09;;;4.74;56.01
79269;BME280;68714;48.586;7.772;2023-04-03T05:15:19;100657.69;;;4.74;56.76
79269;BME280;68714;48.586;7.772;2023-04-03T05:17:45;100654.22;;;4.77;56.73
79269;BME280;68714;48.586;7.772;2023-04-03T05:20:11;100655.97;;;4.78;56.27
79269;BME280;68714;48.586;7.772;2023-04-03T05:22:36;100649.78;;;4.87;56.41
79269;BME280;68714;48.586;7.772;2023-04-03T05:25:02;100659.38;;;4.92;56.47
79269;BME280;68714;48.586;7.772;2023-04-03T05:27:28;100666.38;;;4.87;55.89
79269;BME280;68714;48.586;7.772;2023-04-03T05:29:54;100662.88;;;4.82;56.28
79269;BME280;68714;48.586;7.772;2023-04-03T05:32:20;100663.81;;;4.78;55.90
79269;BME280;68714;48.586;7.772;2023-04-03T05:34:45;100662.09;;;4.69;56.07
79269;BME280;68714;48.586;7.772;2023-04-03T05:37:11;100666.47;;;4.64;55.92
79269;BME280;68714;48.586;7.772;2023-04-03T05:39:37;100656.00;;;4.59;56.45
79269;BME280;68714;48.586;7.772;2023-04-03T05:42:05;100666.47;;;4.59;56.53
79269;BME280;68714;48.586;7.772;2023-04-03T05:44:31;100673.44;;;4.60;56.04
79269;BME280;68714;48.586;7.772;2023-04-03T05:46:56;100669.09;;;4.61;56.56
79269;BME280;68714;48.586;7.772;2023-04-03T05:49:30;100670.81;;;4.62;56.26
79269;BME280;68714;48.586;7.772;2023-04-03T05:51:57;100680.41;;;4.63;56.20
79269;BME280;68714;48.586;7.772;2023-04-03T05:54:29;100677.81;;;4.58;55.86
79269;BME280;68714;48.586;7.772;2023-04-03T05:56:55;100671.72;;;4.53;56.09
79269;BME280;68714;48.586;7.772;2023-04-03T05:59:21;100674.31;;;4.58;55.58
79269;BME280;68714;48.586;7.772;2023-04-03T06:01:47;100675.22;;;4.57;55.72
79269;BME280;68714;48.586;7.772;2023-04-03T06:04:13;100675.19;;;4.60;55.89
79269;BME280;68714;48.586;7.772;2023-04-03T06:06:47;100679.53;;;4.64;55.70
79269;BME280;68714;48.586;7.772;2023-04-03T06:09:15;100681.25;;;4.70;55.81
79269;BME280;68714;48.586;7.772;2023-04-03T06:11:41;100690.84;;;4.69;55.47
79269;BME280;68714;48.586;7.772;2023-04-03T06:14:07;100694.31;;;4.70;55.64
79269;BME280;68714;48.586;7.772;2023-04-03T06:16:33;100696.91;;;4.74;55.31
79269;BME280;68714;48.586;7.772;2023-04-03T06:18:59;100694.28;;;4.80;55.50
79269;BME280;68714;48.586;7.772;2023-04-03T06:21:24;100692.53;;;4.86;55.71
79269;BME280;68714;48.586;7.772;2023-04-03T06:23:50;100692.53;;;4.90;55.38
79269;BME280;68714;48.586;7.772;2023-04-03T06:26:17;100702.97;;;4.93;55.43
79269;BME280;68714;48.586;7.772;2023-04-03T06:28:42;100702.06;;;4.96;55.02
79269;BME280;68714;48.586;7.772;2023-04-03T06:31:08;100694.22;;;4.94;54.87
79269;BME280;68714;48.586;7.772;2023-04-03T06:33:34;100704.69;;;4.94;54.72
79269;BME280;68714;48.586;7.772;2023-04-03T06:36:03;100712.50;;;5.00;54.95
79269;BME280;68714;48.586;7.772;2023-04-03T06:38:29;100702.03;;;5.00;53.60
79269;BME280;68714;48.586;7.772;2023-04-03T06:40:55;100707.22;;;5.11;55.08
79269;BME280;68714;48.586;7.772;2023-04-03T06:43:21;100708.94;;;5.18;54.41
79269;BME280;68714;48.586;7.772;2023-04-03T06:45:47;100710.69;;;5.21;54.85
79269;BME280;68714;48.586;7.772;2023-04-03T06:48:12;100714.13;;;5.26;54.24
79269;BME280;68714;48.586;7.772;2023-04-03T06:50:38;100709.78;;;5.28;54.44
79269;BME280;68714;48.586;7.772;2023-04-03T06:53:04;100715.84;;;5.35;54.62
79269;BME280;68714;48.586;7.772;2023-04-03T06:55:30;100710.56;;;5.43;54.92
79269;BME280;68714;48.586;7.772;2023-04-03T06:57:56;100713.97;;;5.51;54.04
79269;BME280;68714;48.586;7.772;2023-04-03T07:00:22;100718.34;;;5.53;53.72
79269;BME280;68714;48.586;7.772;2023-04-03T07:02:48;100728.78;;;5.57;53.27
79269;BME280;68714;48.586;7.772;2023-04-03T07:05:13;100718.31;;;5.58;53.70
79269;BME280;68714;48.586;7.772;2023-04-03T07:07:39;100723.50;;;5.63;53.79
79269;BME280;68714;48.586;7.772;2023-04-03T07:10:06;100724.41;;;5.57;53.49
79269;BME280;68714;48.586;7.772;2023-04-03T07:12:32;100723.59;;;5.49;53.97
79269;BME280;68714;48.586;7.772;2023-04-03T07:14:58;100725.34;;;5.53;53.58
79269;BME280;68714;48.586;7.772;2023-04-03T07:17:23;100725.31;;;5.56;53.18
79269;BME280;68714;48.586;7.772;2023-04-03T07:19:50;100730.50;;;5.65;53.35
79269;BME280;68714;48.586;7.772;2023-04-03T07:22:16;100738.31;;;5.68;53.38
79269;BME280;68714;48.586;7.772;2023-04-03T07:24:41;100726.94;;;5.69;52.17
79269;BME280;68714;48.586;7.772;2023-04-03T07:27:06;100728.66;;;5.77;52.89
79269;BME280;68714;48.586;7.772;2023-04-03T07:29:34;100739.94;;;5.85;52.67
79269;BME280;68714;48.586;7.772;2023-04-03T07:32:00;100743.38;;;5.93;52.60
79269;BME280;68714;48.586;7.772;2023-04-03T07:34:25;100740.69;;;6.05;52.63
79269;BME280;68714;48.586;7.772;2023-04-03T07:36:51;100743.28;;;6.10;51.91
79269;BME280;68714;48.586;7.772;2023-04-03T07:39:17;100737.16;;;6.13;51.60
79269;BME280;68714;48.586;7.772;2023-04-03T07:41:42;100738.78;;;6.21;51.40
79269;BME280;68714;48.586;7.772;2023-04-03T07:44:07;100745.75;;;6.27;50.72
79269;BME280;68714;48.586;7.772;2023-04-03T07:46:35;100735.28;;;6.25;50.83
79269;BME280;68714;48.586;7.772;2023-04-03T07:49:01;100743.09;;;6.30;50.90
79269;BME280;68714;48.586;7.772;2023-04-03T07:51:26;100749.13;;;6.37;51.11
79269;BME280;68714;48.586;7.772;2023-04-03T07:53:53;100750.84;;;6.42;50.94
79269;BME280;68714;48.586;7.772;2023-04-03T07:56:19;100749.91;;;6.50;50.45
79269;BME280;68714;48.586;7.772;2023-04-03T07:58:45;100750.69;;;6.58;50.27
79269;BME280;68714;48.586;7.772;2023-04-03T08:01:11;100752.41;;;6.62;49.69
79269;BME280;68714;48.586;7.772;2023-04-03T08:03:38;100749.75;;;6.64;49.72
79269;BME280;68714;48.586;7.772;2023-04-03T08:06:05;100752.34;;;6.68;49.31
79269;BME280;68714;48.586;7.772;2023-04-03T08:08:32;100745.34;;;6.66;49.26
79269;BME280;68714;48.586;7.772;2023-04-03T08:10:59;100748.91;;;6.63;48.79
79269;BME280;68714;48.586;7.772;2023-04-03T08:13:26;100753.31;;;6.58;49.02
79269;BME280;68714;48.586;7.772;2023-04-03T08:15:52;100749.78;;;6.62;49.86
79269;BME280;68714;48.586;7.772;2023-04-03T08:18:18;100762.75;;;6.76;49.74
79269;BME280;68714;48.586;7.772;2023-04-03T08:20:46;100753.94;;;6.82;49.68
79269;BME280;68714;48.586;7.772;2023-04-03T08:23:12;100768.63;;;6.95;49.52
79269;BME280;68714;48.586;7.772;2023-04-03T08:25:42;100756.38;;;6.97;48.93
79269;BME280;68714;48.586;7.772;2023-04-03T08:28:09;100744.97;;;6.98;48.38
79269;BME280;68714;48.586;7.772;2023-04-03T08:30:38;100766.84;;;7.00;48.34
79269;BME280;68714;48.586;7.772;2023-04-03T08:33:03;100754.69;;;6.93;48.11
79269;BME280;68714;48.586;7.772;2023-04-03T08:35:29;100750.22;;;6.98;47.88
79269;BME280;68714;48.586;7.772;2023-04-03T08:37:55;100750.13;;;7.07;48.38
79269;BME280;68714;48.586;7.772;2023-04-03T08:40:22;100765.72;;;7.20;48.47
79269;BME280;68714;48.586;7.772;2023-04-03T08:42:57;100763.03;;;7.27;46.95
79269;BME280;68714;48.586;7.772;2023-04-03T08:45:47;100760.34;;;7.32;47.60
79269;BME280;68714;48.586;7.772;2023-04-03T08:48:19;100763.00;;;7.29;48.18
79269;BME280;68714;48.586;7.772;2023-04-03T08:50:50;100772.69;;;7.22;47.93
79269;BME280;68714;48.586;7.772;2023-04-03T08:53:22;100775.53;;;7.04;47.24
79269;BME280;68714;48.586;7.772;2023-04-03T08:55:51;100779.97;;;7.02;48.28
79269;BME280;68714;48.586;7.772;2023-04-03T09:00:53;100761.97;;;7.39;48.52
79269;BME280;68714;48.586;7.772;2023-04-03T09:03:21;100764.31;;;7.59;48.98
79269;BME280;68714;48.586;7.772;2023-04-03T09:06:38;100784.13;;;7.83;49.16
79269;BME280;68714;48.586;7.772;2023-04-03T09:09:07;100774.25;;;7.99;46.70
79269;BME280;68714;48.586;7.772;2023-04-03T09:11:53;100772.53;;;7.97;46.23
79269;BME280;68714;48.586;7.772;2023-04-03T09:17:14;100788.69;;;7.71;46.03
79269;BME280;68714;48.586;7.772;2023-04-03T09:19:54;100766.94;;;7.59;47.37
79269;BME280;68714;48.586;7.772;2023-04-03T09:22:27;100770.34;;;7.67;48.16
79269;BME280;68714;48.586;7.772;2023-04-03T09:27:35;100772.00;;;7.73;49.03
79269;BME280;68714;48.586;7.772;2023-04-03T09:30:02;100778.06;;;7.80;48.99
79269;BME280;68714;48.586;7.772;2023-04-03T09:32:30;100778.81;;;7.86;48.65
79269;BME280;68714;48.586;7.772;2023-04-03T09:35:00;100768.16;;;7.96;47.98
79269;BME280;68714;48.586;7.772;2023-04-03T09:40:27;100771.69;;;7.96;45.39
79269;BME280;68714;48.586;7.772;2023-04-03T09:42:53;100759.41;;;7.95;48.09
79269;BME280;68714;48.586;7.772;2023-04-03T09:45:26;100764.63;;;7.98;48.23
79269;BME280;68714;48.586;7.772;2023-04-03T09:53:33;100767.69;;;7.69;46.39
79269;BME280;68714;48.586;7.772;2023-04-03T09:56:00;100764.22;;;7.67;47.73
79269;BME280;68714;48.586;7.772;2023-04-03T10:01:37;100759.44;;;7.94;46.09
79269;BME280;68714;48.586;7.772;2023-04-03T10:06:31;100762.44;;;8.24;47.57
79269;BME280;68714;48.586;7.772;2023-04-03T10:09:00;100764.75;;;8.44;47.95
79269;BME280;68714;48.586;7.772;2023-04-03T10:11:30;100766.19;;;8.62;47.53
79269;BME280;68714;48.586;7.772;2023-04-03T10:13:58;100768.47;;;8.80;47.25
79269;BME280;68714;48.586;7.772;2023-04-03T10:16:37;100755.56;;;8.68;44.03
79269;BME280;68714;48.586;7.772;2023-04-03T10:22:11;100763.94;;;8.40;45.46
79269;BME280;68714;48.586;7.772;2023-04-03T10:24:52;100760.72;;;8.24;44.12
79269;BME280;68714;48.586;7.772;2023-04-03T10:30:36;100760.69;;;8.26;42.55
79269;BME280;68714;48.586;7.772;2023-04-03T10:39:04;100757.50;;;8.05;42.09
79269;BME280;68714;48.586;7.772;2023-04-03T10:49:42;100749.41;;;8.17;41.97
79269;BME280;68714;48.586;7.772;2023-04-03T10:52:23;100747.59;;;8.23;43.38
79269;BME280;68714;48.586;7.772;2023-04-03T10:57:44;100741.88;;;8.49;44.37
79269;BME280;68714;48.586;7.772;2023-04-03T11:00:34;100745.84;;;8.73;41.63
79269;BME280;68714;48.586;7.772;2023-04-03T11:03:16;100741.47;;;8.72;40.50
79269;BME280;68714;48.586;7.772;2023-04-03T11:05:45;100739.94;;;8.59;40.73
79269;BME280;68714;48.586;7.772;2023-04-03T11:08:24;100740.63;;;8.70;43.65
79269;BME280;68714;48.586;7.772;2023-04-03T11:10:55;100732.63;;;8.76;43.86
79269;BME280;68714;48.586;7.772;2023-04-03T11:13:33;100727.31;;;8.78;42.53
79269;BME280;68714;48.586;7.772;2023-04-03T11:16:00;100731.63;;;8.80;43.23
79269;BME280;68714;48.586;7.772;2023-04-03T11:18:37;100731.88;;;8.68;41.61
79269;BME280;68714;48.586;7.772;2023-04-03T11:21:14;100733.78;;;8.60;41.12
79269;BME280;68714;48.586;7.772;2023-04-03T11:23:41;100737.41;;;8.54;43.14
79269;BME280;68714;48.586;7.772;2023-04-03T11:26:16;100729.69;;;8.45;41.42
79269;BME280;68714;48.586;7.772;2023-04-03T11:28:42;100733.97;;;8.50;43.69
79269;BME280;68714;48.586;7.772;2023-04-03T11:31:42;100733.94;;;8.52;40.72
79269;BME280;68714;48.586;7.772;2023-04-03T11:34:33;100735.72;;;8.50;42.38
79269;BME280;68714;48.586;7.772;2023-04-03T11:37:11;100736.59;;;8.50;43.74
79269;BME280;68714;48.586;7.772;2023-04-03T11:39:39;100728.59;;;8.56;43.64
79269;BME280;68714;48.586;7.772;2023-04-03T11:45:16;100739.34;;;8.44;41.80
79269;BME280;68714;48.586;7.772;2023-04-03T11:47:45;100725.09;;;8.56;43.86
79269;BME280;68714;48.586;7.772;2023-04-03T11:50:30;100730.03;;;8.73;41.56
79269;BME280;68714;48.586;7.772;2023-04-03T11:53:02;100748.44;;;8.74;42.39
79269;BME280;68714;48.586;7.772;2023-04-03T12:00:53;100724.69;;;8.78;42.21
79269;BME280;68714;48.586;7.772;2023-04-03T12:05:52;100706.09;;;8.85;41.94
79269;BME280;68714;48.586;7.772;2023-04-03T12:08:25;100713.13;;;8.85;41.53
79269;BME280;68714;48.586;7.772;2023-04-03T12:16:26;100718.78;;;9.08;41.15
79269;BME280;68714;48.586;7.772;2023-04-03T12:24:04;100710.78;;;9.52;38.10
79269;BME280;68714;48.586;7.772;2023-04-03T12:26:34;100705.22;;;9.64;40.24
79269;BME280;68714;48.586;7.772;2023-04-03T12:29:24;100709.38;;;9.75;37.91
79269;BME280;68714;48.586;7.772;2023-04-03T12:45:26;100700.38;;;9.07;40.25
79269;BME280;68714;48.586;7.772;2023-04-03T12:47:54;100698.88;;;8.95;40.55
79269;BME280;68714;48.586;7.772;2023-04-03T12:50:29;100701.75;;;8.83;39.26
79269;BME280;68714;48.586;7.772;2023-04-03T12:53:24;100689.69;;;8.72;40.17
79269;BME280;68714;48.586;7.772;2023-04-03T12:55:55;100702.91;;;8.69;40.22
79269;BME280;68714;48.586;7.772;2023-04-03T12:58:27;100694.84;;;8.77;39.74
79269;BME280;68714;48.586;7.772;2023-04-03T13:03:25;100699.03;;;8.87;40.51
79269;BME280;68714;48.586;7.772;2023-04-03T13:05:54;100701.50;;;8.95;39.29
79269;BME280;68714;48.586;7.772;2023-04-03T13:08:22;100692.66;;;8.99;39.60
79269;BME280;68714;48.586;7.772;2023-04-03T13:13:25;100690.94;;;8.97;40.25
79269;BME280;68714;48.586;7.772;2023-04-03T13:15:53;100701.47;;;8.97;40.01
79269;BME280;68714;48.586;7.772;2023-04-03T13:20:52;100683.97;;;8.94;40.23
79269;BME280;68714;48.586;7.772;2023-04-03T13:23:19;100691.88;;;8.94;39.92
79269;BME280;68714;48.586;7.772;2023-04-03T13:25:47;100689.31;;;8.89;40.12
79269;BME280;68714;48.586;7.772;2023-04-03T13:28:18;100685.00;;;8.87;39.44
79269;BME280;68714;48.586;7.772;2023-04-03T13:31:09;100694.81;;;8.79;38.39
79269;BME280;68714;48.586;7.772;2023-04-03T13:33:56;100685.88;;;8.87;39.32
79269;BME280;68714;48.586;7.772;2023-04-03T13:36:26;100689.13;;;8.99;40.47
79269;BME280;68714;48.586;7.772;2023-04-03T13:39:23;100683.19;;;8.90;38.29
79269;BME280;68714;48.586;7.772;2023-04-03T13:41:51;100684.91;;;8.91;39.85
79269;BME280;68714;48.586;7.772;2023-04-03T13:44:38;100692.63;;;9.01;38.41
79269;BME280;68714;48.586;7.772;2023-04-03T13:50:20;100678.09;;;9.23;37.26
79269;BME280;68714;48.586;7.772;2023-04-03T13:52:51;100674.47;;;9.27;39.01
79269;BME280;68714;48.586;7.772;2023-04-03T13:55:35;100676.09;;;9.33;36.95
79269;BME280;68714;48.586;7.772;2023-04-03T14:00:47;100681.72;;;9.18;38.97
79269;BME280;68714;48.586;7.772;2023-04-03T14:03:22;100676.53;;;9.15;39.08
79269;BME280;68714;48.586;7.772;2023-04-03T14:05:49;100671.97;;;9.21;39.72
79269;BME280;68714;48.586;7.772;2023-04-03T14:08:14;100671.00;;;9.25;39.42
79269;BME280;68714;48.586;7.772;2023-04-03T14:10:41;100668.38;;;9.25;39.81
79269;BME280;68714;48.586;7.772;2023-04-03T14:13:11;100669.19;;;9.27;39.64
79269;BME280;68714;48.586;7.772;2023-04-03T14:15:37;100673.53;;;9.30;39.89
79269;BME280;68714;48.586;7.772;2023-04-03T14:18:02;100667.69;;;9.16;39.05
79269;BME280;68714;48.586;7.772;2023-04-03T14:20:28;100672.56;;;8.93;39.06
79269;BME280;68714;48.586;7.772;2023-04-03T14:22:54;100664.03;;;8.84;39.58
79269;BME280;68714;48.586;7.772;2023-04-03T14:25:21;100679.03;;;8.79;39.58
79269;BME280;68714;48.586;7.772;2023-04-03T14:27:50;100678.34;;;8.69;39.69
79269;BME280;68714;48.586;7.772;2023-04-03T14:30:27;100692.66;;;8.54;39.28
79269;BME280;68714;48.586;7.772;2023-04-03T14:32:53;100661.22;;;8.48;39.87
79269;BME280;68714;48.586;7.772;2023-04-03T14:35:19;100670.06;;;8.44;40.17
79269;BME280;68714;48.586;7.772;2023-04-03T14:37:46;100668.38;;;8.39;39.79
79269;BME280;68714;48.586;7.772;2023-04-03T14:40:19;100670.16;;;8.37;39.78
79269;BME280;68714;48.586;7.772;2023-04-03T14:42:45;100670.09;;;8.40;40.18
79269;BME280;68714;48.586;7.772;2023-04-03T14:45:12;100675.25;;;8.47;40.24